Tiempo atmosférico en la estación meteorológica de Aranjuez, Madrid (540 m.)



Fecha
DESCASC
Temp. máxima en grados centígrados (hora)
DESCASC
Temp. mínima en grados centígrados (hora)
DESCASC
Temp. media en grados centígrados
DESCASC
Racha de viento máxima en m/sg (hora)
DESCASC
Velocidad máxima media en intervalos de 10 minutos(hora)
DESCASC
Precipitaciones diarias en mm
DESCASC
Precipitaciones de 00:00 a 06:00 en mm
DESCASC
Precipitaciones de 06:00 a 12:00 en mm
DESCASC
Precipitaciones de 12:00 a 18:00 en mm
DESCASC
Precipitaciones de 18:00 a 24:00 en mm
DESCASC
18-08-2019 37.1 (16:10) 17.4 (07:00) 27.2 9.17 (16:30) 3.89 (17:00) 0 0 0 0 0
17-08-2019 38.5 (18:00) 17 (06:50) 27.8 8.61 (17:10) 3.61 (20:30) 0 0 0 0 0
16-08-2019 37.2 (18:10) 17.8 (07:40) 27.5 6.94 (16:50) 3.06 (20:30) 0 0 0 0 0
15-08-2019 36.4 (18:00) 13.7 (00:00) 25.1 6.11 (15:10) 3.33 (09:50) 0 0 0 0 0
14-08-2019 34.4 (18:00) 12.2 (00:00) 23.3 5.56 (14:20) 2.22 (14:40) 0 0 0 0 0
13-08-2019 31 (18:30) 15.8 (00:00) 23.4 6.11 (00:10) 3.06 (00:10) 0 0 0 0 0
12-08-2019 29.9 (18:00) 13.9 (00:00) 21.9 9.44 (12:50) 3.89 (18:20) 0 0 0 0 0
11-08-2019 31.3 (17:20) 16.3 (00:00) 23.8 11.39 (18:00) 5.56 (18:50) 0 0 0 0 0
10-08-2019 33.6 (18:30) 16.9 (00:00) 25.2 6.11 (20:50) 2.78 (20:50) 0 0 0 0 0
09-08-2019 34.1 (17:10) 20.7 (00:00) 27.4 10.56 (20:40) 5.83 (20:30) 0 0 0 0 0
08-08-2019 35.7 (17:50) 15.9 (00:00) 25.8 7.78 (18:50) 3.06 (18:10) 0 0 0 0 0
07-08-2019 29.5 (13:20) 20.6 (00:00) 25.1 9.44 (14:20) 5.56 (14:20) 0 0 0 0 0
06-08-2019 37.3 (18:00) 16.8 (00:00) 27 8.06 (15:10) 3.06 (15:20) 0 0 0 0 0
05-08-2019 37.5 (18:10) 17.6 (00:00) 27.6 6.94 (18:50) 3.61 (18:50) 0 0 0 0 0
04-08-2019 37.2 (17:50) 17.7 (00:00) 27.5 8.06 (15:30) 3.61 (08:20) 0 0 0 0 0
03-08-2019 37.2 (18:00) 19.8 (00:00) 28.5 8.06 (16:50) 3.61 (09:30) 0 0 0 0 0
02-08-2019 36.7 (18:20) 15 (00:00) 25.9 6.67 (16:30) 2.78 (17:50) 0 0 0 0 0
01-08-2019 35.5 (17:30) 20.5 (00:00) 28 15 (00:40) 7.22 (00:50) 0 0 0 0 0
31-07-2019 35.6 (18:10) 17.4 (00:00) 26.5 13.61 (21:20) 7.78 (23:40) 0 0 0 0 0
30-07-2019 32.7 (19:10) 14.7 (00:00) 23.7 5.83 (11:30) 2.5 (00:20) 0 0 0 0 0
29-07-2019 34 (16:50) 15.9 (00:00) 24.9 9.72 (20:30) 5 (19:30) 0 0 0 0 0
28-07-2019 31 (18:40) 15.4 (00:00) 23.2 6.11 (16:10) 2.5 (00:40) 0 0 0 0 0
27-07-2019 28.7 (16:20) 17.5 (00:00) 23.1 11.11 (16:40) 5.28 (15:50) 0 0 0 0 0
26-07-2019 32.1 (18:20) 22.5 (00:00) 27.3 10.56 (16:30) 4.72 (16:40) 0 0 0 0 0
25-07-2019 37.2 (18:30) 21.8 (00:00) 29.5 11.11 (02:30) 5.83 (01:30) 0 0 0 0 0
24-07-2019 38.7 (17:20) 18.7 (00:00) 28.7 8.61 (01:00) 4.72 (00:40) 0.2 0.2 0 0 0
23-07-2019 39.5 (16:30) 23.4 (00:00) 31.4 23.61 (00:40) 8.61 (02:40) 1.5 0 0 0 1.5
22-07-2019 38.8 (17:10) 22.9 (00:00) 30.8 15 (01:40) 7.78 (01:40) 0 0 0 0 0
21-07-2019 39.5 (17:00) 23 (00:00) 31.3 14.17 (23:50) 7.5 (23:40) 0 0 0 0 0

Gráficas

Temp. máximas Temp. mínimas Temp. medias Precipitaciones Rachas de viento máximas Velocidades máximas media en intervalos de 10 minutos

Datos horarios

Fecha y hora oficial Temperatura (ºC) Velocidad del viento (km/h) Dirección del viento Racha (km/h) Dirección de racha Precipitación (mm) Presión (hPa) Tendencia (hPa) Humedad (%)
2019-08-19 23:00:00 27.3 2 Oeste 6 Noroeste 0 -- -- 39
2019-08-19 22:00:00 29 4 Noroeste 19 Noroeste 0 -- -- 37
2019-08-19 21:00:00 30.7 10 Noroeste 26 Noroeste 0 -- -- 37
2019-08-19 20:00:00 32.1 12 Noroeste 24 Noroeste 0 -- -- 37
2019-08-19 19:00:00 33.1 12 Oeste 26 Oeste 0 -- -- 37
2019-08-19 18:00:00 33.8 6 Oeste 26 Oeste 0 -- -- 36
2019-08-19 17:00:00 33.4 9 Oeste 26 Oeste 0 -- -- 38
2019-08-19 16:00:00 34.5 6 Sudoeste 22 Noroeste 0 -- -- 39
2019-08-19 15:00:00 33.1 6 Oeste 18 Noroeste 0 -- -- 41
2019-08-19 14:00:00 31.9 5 Sudoeste 17 Oeste 0 -- -- 42
2019-08-19 13:00:00 30.7 5 Sudoeste 17 Oeste 0 -- -- 46
2019-08-19 12:00:00 29.2 5 Sudoeste 17 Sur 0 -- -- 50
2019-08-19 11:00:00 27.1 3 Oeste 9 Sur 0 -- -- 55
2019-08-19 10:00:00 24.4 3 Sudoeste -- -- -- -- -- 55
2019-08-19 09:00:00 21.6 4 Sudeste 8 Sudeste 0 -- -- 55
2019-08-19 08:00:00 18.4 3 Este 10 Este 0 -- -- 59
2019-08-19 07:00:00 17.6 0 Calma 6 Noroeste 0 -- -- 57
2019-08-19 06:00:00 18.3 2 Norte 6 Norte 0 -- -- 51
2019-08-19 05:00:00 19.4 4 Noroeste 6 Sudeste 0 -- -- 47
2019-08-19 04:00:00 21.7 0 Calma 8 Noroeste 0 -- -- 45
2019-08-19 03:00:00 20.1 2 Oeste 5 Noroeste 0 -- -- 44
2019-08-19 02:00:00 20.1 5 Noroeste 6 Noroeste 0 -- -- 42
2019-08-19 01:00:00 21.2 2 Sudoeste 9 Noroeste 0 -- -- 41
2019-08-19 00:00:00 22.4 0 Calma 4 Nordeste 0 -- -- 37
2019-08-18 23:00:00 25.8 0 Calma 9 Oeste 0 -- -- 34
2019-08-18 22:00:00 28.7 6 Oeste 15 Oeste 0 -- -- 30
2019-08-18 21:00:00 31.1 7 Oeste 31 Noroeste 0 -- -- 30
2019-08-18 20:00:00 33.1 8 Oeste 24 Oeste 0 -- -- 30
2019-08-18 19:00:00 34.7 8 Oeste 32 Oeste 0 -- -- 29
2019-08-18 18:00:00 36 9 Oeste 32 Noroeste 0 -- -- 29
2019-08-18 17:00:00 36 14 Oeste 33 Oeste 0 -- -- 29
2019-08-18 16:00:00 36.3 11 Oeste 27 Oeste 0 -- -- 29
2019-08-18 15:00:00 35.8 7 Oeste 29 Oeste 0 -- -- 31
2019-08-18 14:00:00 34.3 10 Sudoeste 26 Sudoeste 0 -- -- 32
2019-08-18 13:00:00 33.2 10 Oeste 22 Oeste 0 -- -- 32
2019-08-18 12:00:00 31.5 6 Sudoeste 15 Sudoeste 0 -- -- 36
2019-08-18 11:00:00 29.6 4 Sudoeste 10 Sudoeste 0 -- -- 38
2019-08-18 10:00:00 25.8 5 Sudeste 12 Sudeste 0 -- -- 41
2019-08-18 09:00:00 20.5 6 Sudeste 11 Sudeste 0 -- -- 44
2019-08-18 08:00:00 18.3 5 Este 12 Este 0 -- -- 44
2019-08-18 07:00:00 17.6 5 Sudeste 11 Este 0 -- -- 45
2019-08-18 06:00:00 18.3 7 Este 11 Este 0 -- -- 44
2019-08-18 05:00:00 19.2 6 Este 10 Este 0 -- -- 44
2019-08-18 04:00:00 18.9 0 Calma 9 Este 0 -- -- 41
2019-08-18 03:00:00 20.3 6 Sudeste 10 Sudeste 0 -- -- 42
2019-08-18 02:00:00 20.1 0 Calma 5 Norte 0 -- -- 41
2019-08-18 01:00:00 21.6 0 Calma 3 Norte 0 -- -- 38
2019-08-18 00:00:00 23.7 0 Calma 5 Norte 0 -- -- 37
2019-08-17 23:00:00 26 4 Noroeste 5 Norte 0 -- -- 35
2019-08-17 22:00:00 30.2 3 Noroeste 16 Noroeste 0 -- -- 32
2019-08-17 21:00:00 34.3 10 Noroeste 24 Oeste 0 -- -- 30
2019-08-17 20:00:00 36.6 10 Oeste 29 Noroeste 0 -- -- 28
2019-08-17 19:00:00 37.8 7 Oeste 23 Noroeste 0 -- -- 28
2019-08-17 18:00:00 38.2 7 Oeste 31 Noroeste 0 -- -- 29
2019-08-17 17:00:00 37.7 10 Oeste 24 Oeste 0 -- -- 29
2019-08-17 16:00:00 37.3 8 Oeste 27 Oeste 0 -- -- 30
2019-08-17 15:00:00 36.8 10 Oeste 26 Oeste 0 -- -- 32
2019-08-17 14:00:00 36.3 9 Oeste 21 Noroeste 0 -- -- 32
2019-08-17 13:00:00 35.1 4 Oeste 11 Oeste 0 -- -- 35
2019-08-17 12:00:00 32.5 3 Sudeste 9 Sudeste 0 -- -- 36
2019-08-17 11:00:00 30 0 Calma 9 Este 0 -- -- 41
2019-08-17 10:00:00 25.7 8 Sudeste 14 Este 0 -- -- 47
2019-08-17 09:00:00 21.6 9 Este 19 Este 0 -- -- 52
2019-08-17 08:00:00 18.3 7 Este 18 Este 0 -- -- 53
2019-08-17 07:00:00 17.3 4 Sudeste 6 Sudeste 0 -- -- 53
2019-08-17 06:00:00 18.1 0 Calma 22 Este 0 -- -- 50
2019-08-17 05:00:00 20.2 7 Este 14 Este 0 -- -- 49
2019-08-17 04:00:00 19.6 0 Calma 4 Noroeste 0 -- -- 47
2019-08-17 03:00:00 21.5 3 Noroeste 6 Noroeste 0 -- -- 44
2019-08-17 02:00:00 23.1 5 Norte 6 Norte 0 -- -- 43
2019-08-17 01:00:00 25.9 2 Noroeste 10 Noroeste 0 -- -- 40
2019-08-17 00:00:00 25.3 4 Noroeste 6 Noroeste 0 -- -- 40
2019-08-16 23:00:00 27.6 0 Calma 7 Noroeste 0 -- -- 37
2019-08-16 22:00:00 30.9 6 Noroeste 15 Noroeste 0 -- -- 33
2019-08-16 21:00:00 34.3 9 Noroeste 21 Noroeste 0 -- -- 31
2019-08-16 20:00:00 36.2 7 Oeste 22 Oeste 0 -- -- 31
2019-08-16 19:00:00 37.1 5 Oeste 22 Sudoeste 0 -- -- 31
2019-08-16 18:00:00 36.9 6 Sudoeste 21 Sudoeste 0 -- -- 32
2019-08-16 17:00:00 36.4 7 Sudoeste 25 Oeste 0 -- -- 32
2019-08-16 16:00:00 35.7 9 Sudoeste 23 Oeste 0 -- -- 33
2019-08-16 15:00:00 35.1 6 Sudoeste 17 Oeste 0 -- -- 36
2019-08-16 14:00:00 33.9 3 Nordeste 15 Sudeste 0 -- -- 39
2019-08-16 13:00:00 32 6 Este 15 Sudeste 0 -- -- 42
2019-08-16 12:00:00 29.9 7 Este 18 Sudeste 0 -- -- 47
2019-08-16 11:00:00 27.5 7 Sudeste 16 Sudeste 0 -- -- 53
2019-08-16 10:00:00 25.6 3 Sudeste 10 Sudeste 0 -- -- 57
2019-08-16 09:00:00 22.6 0 Calma 6 Este 0 -- -- 62
2019-08-16 08:00:00 18.2 3 Este 6 Este 0 -- -- 66
2019-08-16 07:00:00 18.2 0 Calma 6 Norte 0 -- -- 64
2019-08-16 06:00:00 18.8 0 Calma 5 Noroeste 0 -- -- 60
2019-08-16 05:00:00 20.2 0 Calma 4 Sudeste 0 -- -- 56
2019-08-16 04:00:00 22 3 Este 9 Sudeste 0 -- -- 47
2019-08-16 03:00:00 25.1 5 Este 15 Este 0 -- -- 47
2019-08-16 02:00:00 24.3 6 Norte 13 Este 0 -- -- 43
2019-08-16 01:00:00 23.5 0 Calma 8 Sur 0 -- -- 41
2019-08-16 00:00:00 25 0 Calma 18 Noroeste 0 -- -- 39
2019-08-15 23:00:00 26.4 2 Este 5 Este 0 -- -- 37
2019-08-15 22:00:00 28.6 3 Este 5 Este 0 -- -- 34
2019-08-15 21:00:00 33.5 0 Calma 6 Sudeste 0 -- -- 33
2019-08-15 20:00:00 35.8 0 Calma 10 Sur 0 -- -- 31
2019-08-15 19:00:00 35.9 5 Sudoeste 15 Oeste 0 -- -- 31
2019-08-15 18:00:00 36.3 5 Sudoeste 17 Oeste 0 -- -- 30
2019-08-15 17:00:00 36 3 Oeste 22 Noroeste 0 -- -- 30
2019-08-15 16:00:00 36 6 Nordeste 22 Sudoeste 0 -- -- 29
2019-08-15 15:00:00 34.4 5 Oeste 14 Oeste 0 -- -- 32
2019-08-15 14:00:00 33.9 0 Calma 15 Este 0 -- -- 32
2019-08-15 13:00:00 32.7 3 Sur 16 Sudeste 0 -- -- 35
2019-08-15 12:00:00 30.7 0 Calma 14 Sudeste 0 -- -- 38
2019-08-15 11:00:00 27.2 9 Sudeste 18 Sudeste 0 -- -- 43
2019-08-15 10:00:00 23.1 11 Sudeste 17 Sudeste 0 -- -- 44
2019-08-15 09:00:00 19.9 2 Sudeste 11 Este 0 -- -- 48
2019-08-15 08:00:00 14.2 4 Sudeste 8 Sudeste 0 -- -- 53
2019-08-15 07:00:00 14.8 2 Este 10 Sudeste 0 -- -- 54
2019-08-15 06:00:00 16.7 4 Sudeste 7 Sudeste 0 -- -- 48
2019-08-15 05:00:00 16.7 0 Calma 9 Este 0 -- -- 48
2019-08-15 04:00:00 19.5 7 Este 16 Este 0 -- -- 43
2019-08-15 03:00:00 19.7 8 Este 12 Este 0 -- -- 42
2019-08-15 02:00:00 18.5 3 Este 7 Noroeste 0 -- -- 41
2019-08-15 01:00:00 19.5 4 Noroeste 7 Noroeste 0 -- -- 39
2019-08-15 00:00:00 21.7 0 Calma 9 Este 0 -- -- 37
2019-08-14 23:00:00 23 0 Calma 5 Norte 0 -- -- 35
2019-08-14 22:00:00 25.4 0 Calma 4 Norte 0 -- -- 33
2019-08-14 21:00:00 31.6 2 Sur 5 Sudoeste 0 -- -- 31
2019-08-14 20:00:00 33.9 0 Calma 11 Sudoeste 0 -- -- 29
2019-08-14 19:00:00 33.7 5 Sur 16 Noroeste 0 -- -- 30
2019-08-14 18:00:00 33.7 6 Oeste 17 Oeste 0 -- -- 30
2019-08-14 17:00:00 33.6 4 Oeste 13 Oeste 0 -- -- 32
2019-08-14 16:00:00 32.9 3 Nordeste 14 Noroeste 0 -- -- 31
2019-08-14 15:00:00 32 5 Sudoeste 20 Noroeste 0 -- -- 33
2019-08-14 14:00:00 30.8 5 Oeste 15 Sur 0 -- -- 35
2019-08-14 13:00:00 29.3 3 Sur 12 Sudeste 0 -- -- 42
2019-08-14 12:00:00 27.3 6 Sudeste 10 Este 0 -- -- 51
2019-08-14 11:00:00 24.6 4 Nordeste 11 Sudeste 0 -- -- 53
2019-08-14 10:00:00 21 5 Sudeste 10 Sudeste 0 -- -- 46
2019-08-14 09:00:00 17.2 3 Sur 5 Sudeste 0 -- -- 50
2019-08-14 08:00:00 12.9 0 Calma 9 Sudeste 0 -- -- 52
2019-08-14 07:00:00 12.3 0 Calma 4 Este 0 -- -- 49
2019-08-14 06:00:00 13.2 0 Calma 8 Sudeste 0 -- -- 48
2019-08-14 05:00:00 14.7 0 Calma 7 Sudeste 0 -- -- 47
2019-08-14 04:00:00 15.3 2 Nordeste 5 Noroeste 0 -- -- 45
2019-08-14 03:00:00 16 2 Norte 6 Sudeste 0 -- -- 45
2019-08-14 02:00:00 16.6 3 Este 6 Nordeste 0 -- -- 45
2019-08-14 01:00:00 18.1 3 Este 7 Noroeste 0 -- -- 45
2019-08-14 00:00:00 20 3 Este 6 Sudeste 0 -- -- 41
2019-08-13 23:00:00 20.3 3 Noroeste 4 Norte 0 -- -- 40
2019-08-13 22:00:00 22.9 3 Noroeste 5 Noroeste 0 -- -- 37
2019-08-13 21:00:00 28.8 2 Sur 8 Sudoeste 0 -- -- 34
2019-08-13 20:00:00 30.4 4 Sur 12 Noroeste 0 -- -- 33
2019-08-13 19:00:00 30.4 7 Noroeste 18 Noroeste 0 -- -- 33
2019-08-13 18:00:00 30.7 8 Noroeste 19 Noroeste 0 -- -- 34
2019-08-13 17:00:00 29.8 9 Oeste 21 Noroeste 0 -- -- 35
2019-08-13 16:00:00 30.1 6 Noroeste 19 Noroeste 0 -- -- 35
2019-08-13 15:00:00 29.1 6 Nordeste 19 Nordeste 0 -- -- 36
2019-08-13 14:00:00 28 10 Norte 18 Noroeste 0 -- -- 43
2019-08-13 13:00:00 26.9 4 Norte 14 Norte 0 -- -- 46
2019-08-13 12:00:00 25.2 5 Sudeste 12 Sur 0 -- -- 49
2019-08-13 11:00:00 24.1 4 Nordeste 11 Nordeste 0 -- -- 47
2019-08-13 10:00:00 20.6 4 Sudeste 11 Nordeste 0 -- -- 52
2019-08-13 09:00:00 18.1 7 Nordeste 13 Nordeste 0 -- -- 55
2019-08-13 08:00:00 16.7 5 Norte 10 Nordeste 0 -- -- 56
2019-08-13 07:00:00 16.6 0 Calma 11 Nordeste 0 -- -- 54
2019-08-13 06:00:00 17.4 0 Calma 10 Nordeste 0 -- -- 52
2019-08-13 05:00:00 17.6 5 Este 13 Este 0 -- -- 51
2019-08-13 04:00:00 18.6 4 Nordeste 14 Nordeste 0 -- -- 47
2019-08-13 03:00:00 19.7 9 Nordeste 18 Nordeste 0 -- -- 44
2019-08-13 02:00:00 20.9 5 Nordeste 15 Este 0 -- -- 41
2019-08-13 01:00:00 22.1 6 Nordeste 22 Nordeste 0 -- -- 38
2019-08-13 00:00:00 22.9 12 Nordeste 24 Nordeste 0 -- -- 34
2019-08-12 23:00:00 23.8 12 Nordeste 23 Nordeste 0 -- -- 33
2019-08-12 22:00:00 24.3 7 Nordeste 14 Este 0 -- -- 32
2019-08-12 21:00:00 27 5 Norte 21 Nordeste 0 -- -- 30
2019-08-12 20:00:00 28.7 6 Nordeste 26 Nordeste 0 -- -- 29
2019-08-12 19:00:00 29 6 Nordeste 28 Noroeste 0 -- -- 29
2019-08-12 18:00:00 29.5 9 Noroeste 29 Norte 0 -- -- 29
2019-08-12 17:00:00 29.4 13 Norte 27 Noroeste 0 -- -- 31
2019-08-12 16:00:00 28.3 13 Noroeste 26 Norte 0 -- -- 32
2019-08-12 15:00:00 27.6 10 Este 24 Nordeste 0 -- -- 33
2019-08-12 14:00:00 26.3 14 Norte 30 Nordeste 0 -- -- 33
2019-08-12 13:00:00 26.1 6 Nordeste 34 Noroeste 0 -- -- 36
2019-08-12 12:00:00 24.7 8 Nordeste 30 Nordeste 0 -- -- 43
2019-08-12 11:00:00 23.1 13 Nordeste 26 Nordeste 0 -- -- 45
2019-08-12 10:00:00 21.2 7 Nordeste 15 Nordeste 0 -- -- 51
2019-08-12 09:00:00 17.6 0 Calma 7 Este 0 -- -- 55
2019-08-12 08:00:00 14.3 3 Este 7 Sudeste 0 -- -- 58
2019-08-12 07:00:00 14.2 4 Sudoeste 8 Noroeste 0 -- -- 57
2019-08-12 06:00:00 15.9 6 Norte 10 Norte 0 -- -- 51
2019-08-12 05:00:00 16 3 Noroeste 13 Norte 0 -- -- 48
2019-08-12 04:00:00 18.5 4 Noroeste 18 Noroeste 0 -- -- 45
2019-08-12 03:00:00 19.3 3 Noroeste 10 Noroeste 0 -- -- 42
2019-08-12 02:00:00 20.8 6 Noroeste 23 Noroeste 0 -- -- 39
2019-08-12 01:00:00 21.9 9 Noroeste 17 Noroeste 0 -- -- 39
2019-08-12 00:00:00 22.3 6 Oeste 15 Noroeste 0 -- -- 39
2019-08-11 23:00:00 22.7 6 Oeste 13 Noroeste 0 -- -- 40
2019-08-11 22:00:00 23.9 6 Oeste 18 Oeste 0 -- -- 37
2019-08-11 21:00:00 26.4 12 Oeste 32 Noroeste 0 -- -- 33
2019-08-11 20:00:00 28.9 17 Noroeste 35 Noroeste 0 -- -- 30
2019-08-11 19:00:00 29.8 18 Noroeste 35 Noroeste 0 -- -- 26
2019-08-11 18:00:00 30.7 13 Oeste 41 Noroeste 0 -- -- 30
2019-08-11 17:00:00 30.7 10 Oeste 32 Noroeste 0 -- -- 34
2019-08-11 16:00:00 29.8 13 Oeste 34 Noroeste 0 -- -- 34
2019-08-11 15:00:00 29.9 11 Oeste 31 Oeste 0 -- -- 37
2019-08-11 14:00:00 29.2 8 Oeste 28 Sudoeste 0 -- -- 39
2019-08-11 13:00:00 28.3 8 Sudoeste 23 Oeste 0 -- -- 43
2019-08-11 12:00:00 26.9 9 Oeste 22 Oeste 0 -- -- 46
2019-08-11 11:00:00 25.8 7 Sudoeste 18 Oeste 0 -- -- 46
2019-08-11 10:00:00 23.5 4 Oeste 9 Oeste 0 -- -- 51
2019-08-11 09:00:00 20.3 3 Oeste 6 Oeste 0 -- -- 52
2019-08-11 08:00:00 19.3 3 Sudeste 10 Este 0 -- -- 50
2019-08-11 07:00:00 18.8 0 Calma 9 Oeste 0 -- -- 51
2019-08-11 06:00:00 17.7 3 Oeste 8 Noroeste 0 -- -- 51
2019-08-11 05:00:00 18.3 5 Noroeste 8 Noroeste 0 -- -- 48
2019-08-11 04:00:00 17 3 Norte 5 Noroeste 0 -- -- 47
2019-08-11 03:00:00 17.8 0 Calma 4 Noroeste 0 -- -- 46
2019-08-11 02:00:00 19.1 0 Calma 6 Noroeste 0 -- -- 44
2019-08-11 01:00:00 20.8 0 Calma 5 Sudeste 0 -- -- 43
2019-08-11 00:00:00 22 3 Noroeste 7 Oeste 0 -- -- 41
2019-08-10 23:00:00 25.6 4 Oeste 16 Noroeste 0 -- -- 38
2019-08-10 22:00:00 27.9 8 Noroeste 19 Oeste 0 -- -- 35
2019-08-10 21:00:00 30.5 8 Oeste 22 Noroeste 0 -- -- 36
2019-08-10 20:00:00 32.8 7 Oeste 16 Oeste 0 -- -- 36
2019-08-10 19:00:00 33.1 9 Oeste 19 Noroeste 0 -- -- 35
2019-08-10 18:00:00 33.1 7 Noroeste 19 Oeste 0 -- -- 37
2019-08-10 17:00:00 32.5 5 Oeste 19 Noroeste 0 -- -- 39
2019-08-10 16:00:00 31.4 9 Noroeste 20 Noroeste 0 -- -- 40
2019-08-10 15:00:00 30.3 6 Oeste 20 Noroeste 0 -- -- 41
2019-08-10 14:00:00 28.6 8 Oeste 19 Oeste 0 -- -- 43
2019-08-10 13:00:00 27.4 6 Sudoeste 15 Sudoeste 0 -- -- 48
2019-08-10 12:00:00 26.2 5 Sudoeste 13 Oeste 0 -- -- 56
2019-08-10 11:00:00 24 4 Oeste 11 Noroeste 0 -- -- 64
2019-08-10 10:00:00 21.2 5 Oeste 11 Sudoeste 0 -- -- 71
2019-08-10 09:00:00 20.4 4 Sudoeste 10 Oeste 0 -- -- 76
2019-08-10 08:00:00 17.1 0 Calma 4 Sudeste 0 -- -- 82
2019-08-10 07:00:00 17.6 0 Calma 6 Oeste 0 -- -- 80
2019-08-10 06:00:00 18.3 2 Oeste 9 Oeste 0 -- -- 79
2019-08-10 05:00:00 19.1 2 Oeste 11 Oeste 0 -- -- 77
2019-08-10 04:00:00 19.8 3 Oeste 12 Oeste 0 -- -- 79
2019-08-10 03:00:00 20.6 3 Sudoeste 11 Oeste 0 -- -- 78
2019-08-10 02:00:00 21.2 0 Calma 10 Oeste 0 -- -- 75
2019-08-10 01:00:00 22 4 Oeste 12 Sudoeste 0 -- -- 74
2019-08-10 00:00:00 22.9 5 Oeste 16 Oeste 0 -- -- 70
2019-08-09 23:00:00 23.8 4 Oeste 19 Oeste 0 -- -- 67
2019-08-09 22:00:00 25.2 10 Oeste 30 Oeste 0 -- -- 64
2019-08-09 21:00:00 27.4 15 Oeste 38 Oeste 0 -- -- 59
2019-08-09 20:00:00 31.8 9 Oeste 29 Oeste 0 -- -- 49
2019-08-09 19:00:00 31.5 10 Oeste 28 Oeste 0 -- -- 48
2019-08-09 18:00:00 33.2 10 Oeste 28 Oeste 0 -- -- 46
2019-08-09 17:00:00 33.8 9 Oeste 27 Sudoeste 0 -- -- 46
2019-08-09 16:00:00 33.2 10 Oeste 27 Sudoeste 0 -- -- 46
2019-08-09 15:00:00 32 10 Oeste 31 Oeste 0 -- -- 49
2019-08-09 14:00:00 31 12 Oeste 30 Oeste 0 -- -- 51
2019-08-09 13:00:00 29.2 9 Oeste 27 Oeste 0 -- -- 56
2019-08-09 12:00:00 27.8 8 Sudoeste 20 Oeste 0 -- -- 60
2019-08-09 11:00:00 26.6 6 Oeste 17 Sudoeste 0 -- -- 63
2019-08-09 10:00:00 25.5 6 Oeste 17 Oeste 0 -- -- 67
2019-08-09 09:00:00 24.1 4 Oeste 10 Oeste 0 -- -- 68
2019-08-09 08:00:00 21.4 0 Calma 6 Este 0 -- -- 73
2019-08-09 07:00:00 21.6 3 Sudeste 7 Este 0 -- -- 70
2019-08-09 06:00:00 22.3 0 Calma 10 Oeste 0 -- -- 67
2019-08-09 05:00:00 22.9 4 Sudoeste 13 Oeste 0 -- -- 64
2019-08-09 04:00:00 23 4 Oeste 10 Oeste 0 -- -- 58
2019-08-09 03:00:00 20.9 4 Noroeste 6 Oeste 0 -- -- 54
2019-08-09 02:00:00 21.8 2 Norte 6 Noroeste 0 -- -- 50
2019-08-09 01:00:00 23.5 3 Noroeste 6 Norte 0 -- -- 48
2019-08-09 00:00:00 26.1 2 Sudoeste 7 Noroeste 0 -- -- 46
2019-08-08 23:00:00 28.3 6 Noroeste 11 Noroeste 0 -- -- 43
2019-08-08 22:00:00 29.5 4 Oeste 14 Oeste 0 -- -- 41
2019-08-08 21:00:00 32.7 6 Oeste 21 Sudoeste 0 -- -- 38
2019-08-08 20:00:00 34.6 8 Oeste 21 Oeste 0 -- -- 37
2019-08-08 19:00:00 35.1 9 Oeste 28 Oeste 0 -- -- 37
2019-08-08 18:00:00 35.6 8 Oeste 25 Oeste 0 -- -- 38
2019-08-08 17:00:00 34.7 9 Oeste 19 Oeste 0 -- -- 40
2019-08-08 16:00:00 33.9 5 Oeste 24 Noroeste 0 -- -- 42
2019-08-08 15:00:00 32.5 7 Oeste 24 Noroeste 0 -- -- 45
2019-08-08 14:00:00 31.1 9 Oeste 21 Noroeste 0 -- -- 49
2019-08-08 13:00:00 29.2 10 Oeste 20 Sudoeste 0 -- -- 52
2019-08-08 12:00:00 28 6 Sudoeste 17 Oeste 0 -- -- 55
2019-08-08 11:00:00 26.2 6 Sudoeste 13 Sudoeste 0 -- -- 59
2019-08-08 10:00:00 24.2 2 Este 10 Sudeste 0 -- -- 62
2019-08-08 09:00:00 20.3 7 Este 14 Este 0 -- -- 69
2019-08-08 08:00:00 16.7 8 Este 13 Sudeste 0 -- -- 75
2019-08-08 07:00:00 16.3 3 Sudeste 8 Este 0 -- -- 74
2019-08-08 06:00:00 16.1 0 Calma 6 Sudeste 0 -- -- 73
2019-08-08 05:00:00 16.5 0 Calma 4 Norte 0 -- -- 70
2019-08-08 04:00:00 17 0 Calma 5 Noroeste 0 -- -- 67
2019-08-08 03:00:00 18.5 0 Calma 6 Sudeste 0 -- -- 64
2019-08-08 02:00:00 19.5 3 Oeste 7 Oeste 0 -- -- 62
2019-08-08 01:00:00 20 0 Calma 7 Sudoeste 0 -- -- 59
2019-08-08 00:00:00 20.6 4 Noroeste 6 Noroeste 0 -- -- 56
2019-08-07 23:00:00 22.7 0 Calma 7 Sudoeste 0 -- -- 54
2019-08-07 22:00:00 23.8 3 Oeste 14 Oeste 0 -- -- 52
2019-08-07 21:00:00 25.8 5 Oeste 18 Oeste 0 -- -- 50
2019-08-07 20:00:00 26.2 5 Oeste 17 Sudoeste 0 -- -- 50
2019-08-07 19:00:00 27.1 6 Sudoeste 24 Oeste 0 -- -- 46
2019-08-07 18:00:00 27.9 14 Noroeste 32 Noroeste 0 -- -- 47
2019-08-07 17:00:00 27.7 7 Sudoeste 25 Oeste 0 -- -- 49
2019-08-07 16:00:00 27.8 9 Oeste 26 Noroeste 0 -- -- 50
2019-08-07 15:00:00 27.1 13 Oeste 34 Noroeste 0 -- -- 50
2019-08-07 14:00:00 28.6 10 Oeste 26 Oeste 0 -- -- 45
2019-08-07 13:00:00 28.3 7 Oeste 18 Noroeste 0 -- -- 48
2019-08-07 12:00:00 26.5 6 Oeste 21 Oeste 0 -- -- 50
2019-08-07 11:00:00 25.9 6 Sudoeste 17 Sudoeste 0 -- -- 53
2019-08-07 10:00:00 25.3 5 Oeste 13 Noroeste 0 -- -- 54
2019-08-07 09:00:00 23.7 0 Calma 5 Sudeste 0 -- -- 54
2019-08-07 08:00:00 23 3 Oeste 8 Noroeste 0 -- -- 53
2019-08-07 07:00:00 23.1 5 Oeste 10 Oeste 0 -- -- 51
2019-08-07 06:00:00 23.2 2 Oeste 5 Oeste 0 -- -- 50
2019-08-07 05:00:00 24 4 Oeste 9 Oeste 0 -- -- 47
2019-08-07 04:00:00 24.3 2 Oeste 14 Oeste 0 -- -- 42
2019-08-07 03:00:00 25.3 7 Oeste 17 Oeste 0 -- -- 37
2019-08-07 02:00:00 23.1 3 Oeste 8 Noroeste 0 -- -- 41
2019-08-07 01:00:00 22.2 2 Noroeste 4 Norte 0 -- -- 41
2019-08-07 00:00:00 25 0 Calma 7 Oeste 0 -- -- 37
2019-08-06 23:00:00 28 5 Noroeste 12 Sudoeste 0 -- -- 33
2019-08-06 22:00:00 29.6 4 Oeste 15 Sudoeste 0 -- -- 31
2019-08-06 21:00:00 31.7 5 Oeste 17 Oeste 0 -- -- 29
2019-08-06 20:00:00 34 6 Oeste 21 Oeste 0 -- -- 28
2019-08-06 19:00:00 36.2 10 Oeste 25 Oeste 0 -- -- 26
2019-08-06 18:00:00 37.3 8 Oeste 26 Oeste 0 -- -- 26
2019-08-06 17:00:00 36.6 11 Oeste 27 Sudoeste 0 -- -- 27
2019-08-06 16:00:00 36.6 7 Oeste 29 Oeste 0 -- -- 28
2019-08-06 15:00:00 35.1 10 Oeste 25 Oeste 0 -- -- 29
2019-08-06 14:00:00 34.2 8 Oeste 21 Oeste 0 -- -- 32
2019-08-06 13:00:00 33 7 Oeste 17 Sudoeste 0 -- -- 33
2019-08-06 12:00:00 31.5 7 Sudoeste 13 Oeste 0 -- -- 36
2019-08-06 11:00:00 29.3 4 Oeste 10 Noroeste 0 -- -- 38
2019-08-06 10:00:00 26.6 4 Sudeste 14 Este 0 -- -- 39
2019-08-06 09:00:00 21.9 9 Sudeste 12 Sudeste 0 -- -- 43
2019-08-06 08:00:00 18.2 9 Este 13 Este 0 -- -- 46
2019-08-06 07:00:00 18.4 5 Sudeste 16 Sudeste 0 -- -- 45
2019-08-06 06:00:00 17.1 0 Calma 9 Sur 0 -- -- 44
2019-08-06 05:00:00 17.9 6 Norte 7 Norte 0 -- -- 44
2019-08-06 04:00:00 18.6 5 Noroeste 7 Noroeste 0 -- -- 43
2019-08-06 03:00:00 18.8 2 Norte 8 Norte 0 -- -- 42
2019-08-06 02:00:00 20.1 0 Calma 6 Noroeste 0 -- -- 40
2019-08-06 01:00:00 21.7 3 Noroeste 7 Noroeste 0 -- -- 38
2019-08-06 00:00:00 25.4 4 Noroeste 8 Noroeste 0 -- -- 36
2019-08-05 23:00:00 27.4 5 Noroeste 10 Oeste 0 -- -- 33
2019-08-05 22:00:00 31 7 Noroeste 15 Noroeste 0 -- -- 31
2019-08-05 21:00:00 34.7 8 Noroeste 21 Noroeste 0 -- -- 29
2019-08-05 20:00:00 36.5 6 Oeste 21 Oeste 0 -- -- 29
2019-08-05 19:00:00 36.7 7 Oeste 25 Noroeste 0 -- -- 29
2019-08-05 18:00:00 37.3 4 Noroeste 13 Oeste 0 -- -- 31
2019-08-05 17:00:00 36.5 6 Sudoeste 20 Oeste 0 -- -- 32
2019-08-05 16:00:00 36.2 5 Noroeste 23 Noroeste 0 -- -- 32
2019-08-05 15:00:00 35 7 Oeste 22 Oeste 0 -- -- 33
2019-08-05 14:00:00 33.8 7 Sudoeste 18 Sudoeste 0 -- -- 35
2019-08-05 13:00:00 32.7 6 Sudoeste 15 Sudoeste 0 -- -- 39
2019-08-05 12:00:00 30.7 3 Sudoeste 11 Oeste 0 -- -- 41
2019-08-05 11:00:00 27.6 4 Oeste 10 Oeste 0 -- -- 44
2019-08-05 10:00:00 25.9 0 Calma 8 Sudeste 0 -- -- 44
2019-08-05 09:00:00 22.1 6 Sudeste 12 Este 0 -- -- 47
2019-08-05 08:00:00 18.8 4 Sudeste 9 Este 0 -- -- 49
2019-08-05 07:00:00 18.2 8 Este 13 Este 0 -- -- 47
2019-08-05 06:00:00 18.3 6 Este 9 Este 0 -- -- 46
2019-08-05 05:00:00 18.2 0 Calma 5 Este 0 -- -- 43
2019-08-05 04:00:00 19.1 0 Calma 6 Este 0 -- -- 40
2019-08-05 03:00:00 20.6 4 Este 9 Este 0 -- -- 40
2019-08-05 02:00:00 20 0 Calma 7 Norte 0 -- -- 40
2019-08-05 01:00:00 21.2 4 Norte 6 Noroeste 0 -- -- 38
2019-08-05 00:00:00 22.9 2 Norte 6 Norte 0 -- -- 35
2019-08-04 23:00:00 25.8 0 Calma 10 Noroeste 0 -- -- 32
2019-08-04 22:00:00 27.9 6 Noroeste 9 Noroeste 0 -- -- 29
2019-08-04 21:00:00 33.7 3 Oeste 16 Sudoeste 0 -- -- 26
2019-08-04 20:00:00 35.8 6 Oeste 20 Oeste 0 -- -- 26
2019-08-04 19:00:00 36.5 9 Oeste 23 Sudoeste 0 -- -- 26
2019-08-04 18:00:00 36.8 8 Oeste 24 Oeste 0 -- -- 27
2019-08-04 17:00:00 36.6 6 Oeste 24 Noroeste 0 -- -- 29
2019-08-04 16:00:00 35.9 8 Oeste 29 Oeste 0 -- -- 30
2019-08-04 15:00:00 35.1 10 Oeste 24 Oeste 0 -- -- 32
2019-08-04 14:00:00 34 9 Oeste 22 Oeste 0 -- -- 33
2019-08-04 13:00:00 33 5 Oeste 18 Sudoeste 0 -- -- 35
2019-08-04 12:00:00 31.3 5 Sudoeste 11 Sudoeste 0 -- -- 38
2019-08-04 11:00:00 29.7 4 Oeste 9 Sudeste 0 -- -- 39
2019-08-04 10:00:00 26.6 8 Sudeste 14 Sudeste 0 -- -- 40
2019-08-04 09:00:00 22.1 9 Este 19 Sudeste 0 -- -- 45
2019-08-04 08:00:00 18.4 11 Este 17 Sudeste 0 -- -- 48
2019-08-04 07:00:00 17.8 6 Este 10 Sudeste 0 -- -- 47
2019-08-04 06:00:00 18.1 4 Este 11 Este 0 -- -- 45
2019-08-04 05:00:00 18.7 7 Este 11 Este 0 -- -- 45
2019-08-04 04:00:00 18.2 0 Calma 4 Norte 0 -- -- 43
2019-08-04 03:00:00 19.9 3 Sudeste 5 Sudeste 0 -- -- 41
2019-08-04 02:00:00 21.7 0 Calma 8 Este 0 -- -- 38
2019-08-04 01:00:00 23 4 Este 7 Este 0 -- -- 37
2019-08-04 00:00:00 23.5 4 Noroeste 7 Noroeste 0 -- -- 34
2019-08-03 23:00:00 25.3 5 Noroeste 8 Noroeste 0 -- -- 31
2019-08-03 22:00:00 28.7 7 Noroeste 14 Noroeste 0 -- -- 28
2019-08-03 21:00:00 34.5 10 Noroeste 18 Noroeste 0 -- -- 26
2019-08-03 20:00:00 36.2 9 Oeste 23 Oeste 0 -- -- 26
2019-08-03 19:00:00 36.8 8 Oeste 17 Oeste 0 -- -- 27
2019-08-03 18:00:00 37 10 Noroeste 26 Noroeste 0 -- -- 28
2019-08-03 17:00:00 36.6 9 Oeste 29 Oeste 0 -- -- 29
2019-08-03 16:00:00 36.1 10 Oeste 24 Noroeste 0 -- -- 29
2019-08-03 15:00:00 35.1 8 Sudoeste 21 Oeste 0 -- -- 31
2019-08-03 14:00:00 34.2 5 Oeste 15 Oeste 0 -- -- 33
2019-08-03 13:00:00 32.9 0 Calma 14 Sudeste 0 -- -- 38
2019-08-03 12:00:00 30.7 5 Sudeste 13 Sudeste 0 -- -- 44
2019-08-03 11:00:00 28.5 8 Sudeste 19 Este 0 -- -- 49
2019-08-03 10:00:00 25.7 10 Sudeste 19 Este 0 -- -- 55
2019-08-03 09:00:00 23.3 9 Este 15 Este 0 -- -- 59
2019-08-03 08:00:00 20.8 10 Este 17 Este 0 -- -- 63
2019-08-03 07:00:00 20.4 8 Este 17 Sudeste 0 -- -- 63
2019-08-03 06:00:00 20.8 8 Este 13 Este 0 -- -- 60
2019-08-03 05:00:00 21 6 Este 10 Este 0 -- -- 52
2019-08-03 04:00:00 21.3 8 Este 17 Este 0 -- -- 44
2019-08-03 03:00:00 21 10 Este 20 Sudeste 0 -- -- 42
2019-08-03 02:00:00 20 3 Sudeste 10 Sudeste 0 -- -- 40
2019-08-03 01:00:00 21 0 Calma 5 Norte 0 -- -- 37
2019-08-03 00:00:00 23 3 Norte 5 Norte 0 -- -- 35
2019-08-02 23:00:00 26.6 3 Sudeste 9 Sudeste 0 -- -- 34
2019-08-02 22:00:00 28.8 4 Noroeste 9 Norte 0 -- -- 30
2019-08-02 21:00:00 34.4 6 Noroeste 11 Noroeste 0 -- -- 28
2019-08-02 20:00:00 36.1 6 Noroeste 13 Oeste 0 -- -- 28
2019-08-02 19:00:00 36.5 3 Oeste 18 Oeste 0 -- -- 29
2019-08-02 18:00:00 36.4 9 Oeste 19 Noroeste 0 -- -- 29
2019-08-02 17:00:00 35.7 6 Oeste 24 Oeste 0 -- -- 30
2019-08-02 16:00:00 35.3 8 Oeste 23 Oeste 0 -- -- 31
2019-08-02 15:00:00 34.3 9 Oeste 21 Sudoeste 0 -- -- 32
2019-08-02 14:00:00 33.8 5 Sudoeste 17 Sudoeste 0 -- -- 34
2019-08-02 13:00:00 31.6 6 Oeste 13 Sudoeste 0 -- -- 39
2019-08-02 12:00:00 29.3 4 Sur 11 Sur 0 -- -- 41
2019-08-02 11:00:00 26.4 3 Sudeste 9 Sudeste 0 -- -- 42
2019-08-02 10:00:00 23.3 4 Sudeste 8 Sudeste 0 -- -- 46
2019-08-02 09:00:00 19.5 6 Sudeste 12 Este 0 -- -- 50
2019-08-02 08:00:00 16.8 8 Este 13 Este 0 -- -- 54
2019-08-02 07:00:00 15.2 3 Noroeste 6 Sudeste 0 -- -- 52
2019-08-02 06:00:00 16.1 2 Noroeste 6 Sudeste 0 -- -- 50
2019-08-02 05:00:00 17.7 2 Noroeste 8 Norte 0 -- -- 47
2019-08-02 04:00:00 17.6 3 Norte 6 Noroeste 0 -- -- 47
2019-08-02 03:00:00 19.7 0 Calma 8 Norte 0 -- -- 45
2019-08-02 02:00:00 19.6 0 Calma 6 Noroeste 0 -- -- 42
2019-08-02 01:00:00 21.2 4 Norte 5 Norte 0 -- -- 40
2019-08-02 00:00:00 22.9 0 Calma 5 Noroeste 0 -- -- 38
2019-08-01 23:00:00 25.3 3 Noroeste 5 Oeste 0 -- -- 35
2019-08-01 22:00:00 29.2 2 Noroeste 10 Oeste 0 -- -- 33
2019-08-01 21:00:00 32.6 6 Oeste 15 Sudoeste 0 -- -- 31
2019-08-01 20:00:00 34.4 6 Oeste 19 Oeste 0 -- -- 29
2019-08-01 19:00:00 34.9 8 Oeste 25 Sudoeste 0 -- -- 30
2019-08-01 18:00:00 35.1 9 Oeste 24 Oeste 0 -- -- 32
2019-08-01 17:00:00 35 6 Sudoeste 21 Sudoeste 0 -- -- 33
2019-08-01 16:00:00 33.9 8 Oeste 24 Oeste 0 -- -- 35
2019-08-01 15:00:00 33.1 8 Oeste 21 Oeste 0 -- -- 37
2019-08-01 14:00:00 32.2 8 Sudoeste 19 Oeste 0 -- -- 35
2019-08-01 13:00:00 31.3 4 Oeste 17 Sur 0 -- -- 48
2019-08-01 12:00:00 29 5 Sudeste 27 Este 0 -- -- 52
2019-08-01 11:00:00 26.9 8 Sudeste 21 Sudeste 0 -- -- 58
2019-08-01 10:00:00 24.2 12 Este 19 Sudeste 0 -- -- 64
2019-08-01 09:00:00 22.2 14 Sudeste 23 Sudeste 0 -- -- 67
2019-08-01 08:00:00 20.8 13 Sudeste 23 Sudeste 0 -- -- 68
2019-08-01 07:00:00 20.8 13 Sudeste 24 Sudeste 0 -- -- 66
2019-08-01 06:00:00 21.2 14 Sudeste 23 Sudeste 0 -- -- 68
2019-08-01 05:00:00 21.6 13 Sudeste 26 Sudeste 0 -- -- 67
2019-08-01 04:00:00 22.1 10 Este 24 Este 0 -- -- 66
2019-08-01 03:00:00 22.5 17 Sudeste 36 Sudeste 0 -- -- 64
2019-08-01 02:00:00 23.4 16 Sudeste 40 Sudeste 0 -- -- 62
2019-08-01 01:00:00 24.5 22 Sudeste 54 Sudeste 0 -- -- 61
2019-08-01 00:00:00 25.7 21 Sudeste 44 Sudeste 0 -- -- 59
2019-07-31 23:00:00 27.2 16 Sudeste 47 Sudeste 0 -- -- 55
2019-07-31 22:00:00 28.9 22 Sudeste 49 Sudeste 0 -- -- 51
2019-07-31 21:00:00 30.7 21 Sudeste 41 Sudeste 0 -- -- 45
2019-07-31 20:00:00 32.9 11 Sudeste 26 Sudeste 0 -- -- 38
2019-07-31 19:00:00 34.4 13 Sudeste 25 Sudeste 0 -- -- 36
2019-07-31 18:00:00 35.4 6 Sudeste 33 Sudeste 0 -- -- 36
2019-07-31 17:00:00 34.7 13 Sudeste 27 Sudeste 0 -- -- 36
2019-07-31 16:00:00 34.1 8 Sudeste 26 Sudeste 0 -- -- 38
2019-07-31 15:00:00 33.2 18 Sudeste 33 Sudeste 0 -- -- 40
2019-07-31 14:00:00 31.7 15 Sudeste 28 Sur 0 -- -- 42
2019-07-31 13:00:00 30.9 12 Sudeste 28 Sudeste 0 -- -- 46
2019-07-31 12:00:00 28.6 15 Sudeste 30 Sudeste 0 -- -- 52
2019-07-31 11:00:00 26.8 15 Sudeste 27 Sudeste 0 -- -- 56
2019-07-31 10:00:00 24.6 14 Este 25 Sudeste 0 -- -- 61
2019-07-31 09:00:00 22.8 7 Nordeste 16 Nordeste 0 -- -- 57
2019-07-31 08:00:00 19.1 3 Nordeste 13 Nordeste 0 -- -- 58
2019-07-31 07:00:00 19.4 5 Nordeste 17 Nordeste 0 -- -- 56
2019-07-31 06:00:00 18.9 10 Nordeste 22 Nordeste 0 -- -- 54
2019-07-31 05:00:00 19.2 10 Nordeste 20 Nordeste 0 -- -- 52
2019-07-31 04:00:00 18.6 0 Calma 9 Nordeste 0 -- -- 48
2019-07-31 03:00:00 18.8 3 Este 6 Sur 0 -- -- 42
2019-07-31 02:00:00 19.7 4 Sudeste 11 Sudeste 0 -- -- 38
2019-07-31 01:00:00 20.2 2 Este 7 Nordeste 0 -- -- 35
2019-07-31 00:00:00 22.6 5 Nordeste 10 Sudeste 0 -- -- 32
2019-07-30 23:00:00 25.8 6 Nordeste 12 Nordeste 0 -- -- 30
2019-07-30 22:00:00 24.7 4 Norte 7 Norte 0 -- -- 29
2019-07-30 21:00:00 31 4 Norte 10 Noroeste 0 -- -- 26
2019-07-30 20:00:00 32.3 5 Noroeste 16 Norte 0 -- -- 26
2019-07-30 19:00:00 32.5 5 Norte 14 Norte 0 -- -- 27
2019-07-30 18:00:00 32 6 Noroeste 17 Noroeste 0 -- -- 28
2019-07-30 17:00:00 31.3 9 Oeste 19 Noroeste 0 -- -- 30
2019-07-30 16:00:00 30.8 9 Oeste 19 Oeste 0 -- -- 31
2019-07-30 15:00:00 30.3 4 Sudoeste 15 Oeste 0 -- -- 35
2019-07-30 14:00:00 29.5 5 Norte 17 Noroeste 0 -- -- 37
2019-07-30 13:00:00 28.4 4 Norte 15 Nordeste 0 -- -- 39
2019-07-30 12:00:00 27.1 3 Nordeste 21 Nordeste 0 -- -- 41
2019-07-30 11:00:00 24.3 6 Noroeste 20 Noroeste 0 -- -- 45
2019-07-30 10:00:00 22.8 9 Nordeste 17 Nordeste 0 -- -- 47
2019-07-30 09:00:00 18.9 4 Sudoeste 7 Sudoeste 0 -- -- 53
2019-07-30 08:00:00 15.5 3 Sudeste 7 Norte 0 -- -- 56
2019-07-30 07:00:00 15.6 2 Norte 8 Oeste 0 -- -- 54
2019-07-30 06:00:00 16.7 5 Oeste 9 Oeste 0 -- -- 52
2019-07-30 05:00:00 17.1 0 Calma 10 Noroeste 0 -- -- 51
2019-07-30 04:00:00 17.1 4 Oeste 8 Oeste 0 -- -- 48
2019-07-30 03:00:00 17.9 2 Noroeste 8 Noroeste 0 -- -- 45
2019-07-30 02:00:00 18.4 3 Noroeste 6 Sudoeste 0 -- -- 42
2019-07-30 01:00:00 22.5 3 Noroeste 16 Noroeste 0 -- -- 39
2019-07-30 00:00:00 23.8 7 Noroeste 13 Oeste 0 -- -- 37
2019-07-29 23:00:00 25.4 5 Oeste 21 Oeste 0 -- -- 35
2019-07-29 22:00:00 28.1 8 Oeste 24 Sudoeste 0 -- -- 33
2019-07-29 21:00:00 30.6 16 Oeste 35 Noroeste 0 -- -- 32
2019-07-29 20:00:00 32 16 Oeste 35 Noroeste 0 -- -- 30
2019-07-29 19:00:00 33.4 9 Oeste 32 Noroeste 0 -- -- 29
2019-07-29 18:00:00 33.7 11 Oeste 32 Noroeste 0 -- -- 29
2019-07-29 17:00:00 33.6 9 Oeste 32 Oeste 0 -- -- 29
2019-07-29 16:00:00 33.2 10 Oeste 33 Noroeste 0 -- -- 32
2019-07-29 15:00:00 32.6 8 Oeste 28 Oeste 0 -- -- 38
2019-07-29 14:00:00 31.5 9 Oeste 23 Noroeste 0 -- -- 41
2019-07-29 13:00:00 30.4 9 Oeste 22 Sudoeste 0 -- -- 42
2019-07-29 12:00:00 28.9 5 Sudoeste 17 Sudoeste 0 -- -- 46
2019-07-29 11:00:00 26.4 5 Oeste 13 Oeste 0 -- -- 48
2019-07-29 10:00:00 24.6 3 Sudoeste 10 Sudoeste 0 -- -- 50
2019-07-29 09:00:00 20.5 4 Sudeste 10 Sudeste 0 -- -- 51
2019-07-29 08:00:00 16.8 6 Este 10 Este 0 -- -- 54
2019-07-29 07:00:00 16.5 4 Este 8 Este 0 -- -- 53
2019-07-29 06:00:00 16.4 4 Este 8 Este 0 -- -- 51
2019-07-29 05:00:00 17.4 5 Este 8 Sudeste 0 -- -- 49
2019-07-29 04:00:00 18.3 4 Sudeste 6 Sudeste 0 -- -- 47
2019-07-29 03:00:00 18.2 2 Noroeste 4 Sudeste 0 -- -- 45
2019-07-29 02:00:00 20.8 2 Este 7 Este 0 -- -- 42
2019-07-29 01:00:00 21.9 5 Este 10 Este 0 -- -- 41
2019-07-29 00:00:00 22.1 3 Este 8 Este 0 -- -- 41
2019-07-28 23:00:00 22.3 2 Este 4 Este 0 -- -- 40
2019-07-28 22:00:00 25.2 0 Calma 3 Sudoeste 0 -- -- 37
2019-07-28 21:00:00 30.1 2 Sudoeste 12 Sudoeste 0 -- -- 35
2019-07-28 20:00:00 30.8 5 Oeste 21 Oeste 0 -- -- 34
2019-07-28 19:00:00 30.7 5 Oeste 18 Oeste 0 -- -- 36
2019-07-28 18:00:00 30.5 5 Sur 19 Sudoeste 0 -- -- 39
2019-07-28 17:00:00 29.9 6 Sudoeste 22 Sudoeste 0 -- -- 40
2019-07-28 16:00:00 29.2 7 Sudoeste 19 Sudoeste 0 -- -- 42
2019-07-28 15:00:00 28.4 7 Sudoeste 17 Sudoeste 0 -- -- 45
2019-07-28 14:00:00 27.2 8 Oeste 19 Noroeste 0 -- -- 46
2019-07-28 13:00:00 26.1 5 Sur 15 Sudoeste 0 -- -- 46
2019-07-28 12:00:00 25.3 6 Sudeste 17 Este 0 -- -- 48
2019-07-28 11:00:00 22.9 6 Sudeste 12 Este 0 -- -- 53
2019-07-28 10:00:00 20.9 0 Calma 8 Este 0 -- -- 57
2019-07-28 09:00:00 18.7 2 Sur 6 Nordeste 0 -- -- 62
2019-07-28 08:00:00 16.6 5 Nordeste 10 Este 0 -- -- 65
2019-07-28 07:00:00 15.5 5 Nordeste 11 Nordeste 0 -- -- 66
2019-07-28 06:00:00 16.9 5 Nordeste 13 Nordeste 0 -- -- 64
2019-07-28 05:00:00 17.8 4 Nordeste 14 Nordeste 0 -- -- 63
2019-07-28 04:00:00 18.3 5 Nordeste 10 Sudeste 0 -- -- 62
2019-07-28 03:00:00 18.6 2 Este 9 Este 0 -- -- 60
2019-07-28 02:00:00 19.1 0 Calma 10 Nordeste 0 -- -- 57
2019-07-28 01:00:00 21.3 7 Norte 17 Nordeste 0 -- -- 54
2019-07-28 00:00:00 21.7 3 Noroeste 10 Noroeste 0 -- -- 53
2019-07-27 23:00:00 23.8 10 Noroeste 24 Noroeste 0 -- -- 53
2019-07-26 12:00:00 27.9 10 Sudoeste 24 Sudoeste 0 -- -- 54
2019-07-26 11:00:00 26.8 9 Sudoeste 22 Oeste 0 -- -- 59
2019-07-26 10:00:00 25.1 8 Oeste 22 Oeste 0 -- -- 62
2019-07-26 09:00:00 24.5 6 Oeste 16 Noroeste 0 -- -- 65
2019-07-26 08:00:00 22.7 3 Oeste 11 Oeste 0 -- -- 66
2019-07-26 07:00:00 23.3 3 Oeste 13 Oeste 0 -- -- 62
2019-07-26 06:00:00 23.9 5 Oeste 15 Sudoeste 0 -- -- 59
2019-07-26 05:00:00 24.2 6 Oeste 17 Oeste 0 -- -- 54
2019-07-26 04:00:00 24.9 7 Oeste 15 Oeste 0 -- -- 47
2019-07-26 03:00:00 23.2 3 Noroeste 4 Norte 0 -- -- 42
2019-07-26 02:00:00 23.2 0 Calma 5 Este 0 -- -- 41
2019-07-26 01:00:00 24.3 2 Este 7 Este 0 -- -- 40
2019-07-26 00:00:00 25.1 3 Noroeste 6 Noroeste 0 -- -- 37
2019-07-25 23:00:00 27.8 4 Noroeste 13 Noroeste 0 -- -- 35
2019-07-25 22:00:00 30.9 7 Noroeste 28 Noroeste 0 -- -- 33
2019-07-25 21:00:00 33.4 14 Noroeste 31 Oeste 0 -- -- 32
2019-07-25 20:00:00 34.6 19 Noroeste 36 Oeste 0 -- -- 32
2019-07-25 19:00:00 36.6 9 Oeste 22 Sudoeste 0 -- -- 30
2019-07-25 18:00:00 35.5 8 Sudoeste 26 Sudoeste 0 -- -- 31
2019-07-25 17:00:00 36.6 7 Oeste 32 Noroeste 0 -- -- 32
2019-07-25 16:00:00 36 5 Oeste 22 Oeste 0 -- -- 33
2019-07-25 15:00:00 35.6 10 Oeste 21 Oeste 0 -- -- 34
2019-07-25 14:00:00 34.6 8 Oeste 23 Noroeste 0 -- -- 35
2019-07-25 13:00:00 33.9 6 Oeste 15 Noroeste 0 -- -- 36
2019-07-25 12:00:00 32.3 5 Oeste 12 Sudoeste 0 -- -- 39
2019-07-25 11:00:00 30.4 6 Oeste 16 Oeste 0 -- -- 42
2019-07-25 10:00:00 29 3 Sudoeste 13 Sudeste 0 -- -- 43
2019-07-25 09:00:00 26 8 Este 11 Este 0 -- -- 46
2019-07-25 08:00:00 23.2 3 Este 7 Este 0 -- -- 50
2019-07-25 07:00:00 21.8 2 Sudeste 5 Sudeste 0 -- -- 49
2019-07-25 06:00:00 24.6 2 Sur 14 Sudeste 0 -- -- 44
2019-07-25 05:00:00 25.3 9 Sudeste 23 Sudeste 0 -- -- 40
2019-07-25 04:00:00 27.1 13 Sudeste 29 Sudeste 0 -- -- 37
2019-07-25 03:00:00 27.8 18 Sudeste 40 Sudeste 0 -- -- 36
2019-07-25 02:00:00 28.5 19 Sudeste 37 Sur 0 -- -- 35
2019-07-25 01:00:00 29.7 18 Este 28 Sudeste 0 -- -- 33
2019-07-25 00:00:00 30.6 11 Este 21 Este 0 -- -- 32
2019-07-24 23:00:00 31.4 2 Sudeste 10 Sur 0 -- -- 32
2019-07-24 22:00:00 32.8 6 Sudeste 11 Sudoeste 0 -- -- 31
2019-07-24 21:00:00 35.7 4 Sudoeste 17 Oeste 0 -- -- 29
2019-07-24 20:00:00 37.5 6 Sudoeste 24 Oeste 0 -- -- 28
2019-07-24 19:00:00 37.9 9 Sudoeste 24 Sudoeste 0 -- -- 28
2019-07-24 18:00:00 38 9 Sudeste 25 Sur 0 -- -- 28
2019-07-24 17:00:00 38.4 9 Sudeste 23 Sudeste 0 -- -- 28
2019-07-24 16:00:00 37.8 6 Sudoeste 22 Sudeste 0 -- -- 28
2019-07-24 15:00:00 37.1 4 Sudeste 20 Sur 0 -- -- 31
2019-07-24 14:00:00 35.8 6 Sur 20 Sur 0 -- -- 35
2019-07-24 13:00:00 34.2 6 Oeste 15 Sudeste 0 -- -- 37
2019-07-24 12:00:00 32.5 8 Sudeste 19 Este 0 -- -- 37
2019-07-24 11:00:00 30.4 7 Sudeste 15 Sudeste 0 -- -- 40
2019-07-24 10:00:00 27.5 6 Sudeste 11 Sudeste 0 -- -- 51
2019-07-24 09:00:00 24 2 Sudeste 6 Sudeste 0 -- -- 66
2019-07-24 08:00:00 19.2 0 Calma 5 Noroeste 0 -- -- 79
2019-07-24 07:00:00 19.3 0 Calma 5 Norte 0 -- -- 75
2019-07-24 06:00:00 19.8 3 Noroeste 8 Noroeste 0 -- -- 72
2019-07-24 05:00:00 20.8 2 Nordeste 6 Sudeste 0 -- -- 65
2019-07-24 04:00:00 23.9 7 Sudeste 13 Este 0 -- -- 56
2019-07-24 03:00:00 25.2 3 Este 9 Este 0 -- -- 52
2019-07-24 02:00:00 25.7 3 Este 25 Sudeste 0 -- -- 53
2019-07-24 01:00:00 26.4 15 Sudeste 31 Sudeste 0.2 -- -- 53
2019-07-24 00:00:00 25.1 7 Oeste 26 Noroeste 0 -- -- 53
2019-07-23 23:00:00 26.1 15 Noroeste 28 Noroeste 0 -- -- 54
2019-07-23 22:00:00 26.4 2 Oeste 15 Este 0 -- -- 54
2019-07-23 21:00:00 28.5 11 Este 34 Sudoeste 0 -- -- 47
2019-07-23 20:00:00 27.2 7 Sudoeste 64 Sudeste 1.5 -- -- 47
2019-07-23 19:00:00 37.4 17 Sudeste 32 Sudeste 0 -- -- 28
2019-07-23 18:00:00 38.4 10 Sudeste 29 Sudeste 0 -- -- 28
2019-07-23 17:00:00 39.4 6 Sur 24 Sur 0 -- -- 28
2019-07-23 16:00:00 38.9 12 Sudeste 30 Sur 0 -- -- 28
2019-07-23 15:00:00 38 8 Sudeste 22 Sudeste 0 -- -- 29
2019-07-23 14:00:00 36.3 9 Sudeste 21 Sudeste 0 -- -- 29
2019-07-23 13:00:00 35.9 8 Sudeste 18 Sudeste 0 -- -- 30
2019-07-23 12:00:00 34.2 8 Sur 19 Este 0 -- -- 32
2019-07-23 11:00:00 31.5 8 Sudeste 19 Sudeste 0 -- -- 35
2019-07-23 10:00:00 28.5 13 Sudeste 23 Sudeste 0 -- -- 38
2019-07-23 09:00:00 26.1 8 Sudeste 13 Este 0 -- -- 43
2019-07-23 08:00:00 23.8 2 Este 9 Nordeste 0 -- -- 43
2019-07-23 07:00:00 24.6 5 Nordeste 11 Este 0 -- -- 41
2019-07-23 06:00:00 25.1 0 Calma 11 Sudeste 0 -- -- 41
2019-07-23 05:00:00 26.4 5 Sudeste 36 Sudeste 0 -- -- 40
2019-07-23 04:00:00 26.9 9 Sudeste 50 Sudeste 0 -- -- 40
2019-07-23 03:00:00 27.2 29 Sudeste 49 Sudeste 0 -- -- 41
2019-07-23 02:00:00 27.6 27 Sudeste 50 Sudeste 0 -- -- 41
2019-07-23 01:00:00 28.6 19 Sudeste 85 Sudeste 0 -- -- 39
2019-07-23 00:00:00 30.1 28 Sudeste 43 Sudeste 0 -- -- 36
2019-07-22 23:00:00 32 21 Sudeste 49 Sudeste 0 -- -- 28
2019-07-22 22:00:00 33.1 19 Sudeste 50 Sur 0 -- -- 28
2019-07-22 21:00:00 34.8 19 Sudeste 40 Sudeste 0 -- -- 29
2019-07-22 20:00:00 36.5 24 Sudeste 41 Sudeste 0 -- -- 30
2019-07-22 19:00:00 38.2 15 Sudeste 30 Sudeste 0 -- -- 29
2019-07-22 18:00:00 38.4 16 Sudeste 41 Sudeste 0 -- -- 29
2019-07-22 17:00:00 38.3 15 Sudeste 40 Sudeste 0 -- -- 30
2019-07-22 16:00:00 37.7 16 Sudeste 33 Sudeste 0 -- -- 31
2019-07-22 15:00:00 36.9 14 Sudeste 39 Sudeste 0 -- -- 31
2019-07-22 14:00:00 36.2 13 Sudeste 30 Sudeste 0 -- -- 32
2019-07-22 13:00:00 34.7 13 Sudeste 29 Sudeste 0 -- -- 33
2019-07-22 12:00:00 32.6 14 Sudeste 30 Sudeste 0 -- -- 37
2019-07-22 11:00:00 30.6 12 Sudeste 26 Sudeste 0 -- -- 39
2019-07-22 10:00:00 27.5 15 Sudeste 25 Sudeste 0 -- -- 43
2019-07-22 09:00:00 25.6 5 Este 10 Sudeste 0 -- -- 45
2019-07-22 08:00:00 23.4 6 Este 12 Sudeste 0 -- -- 46
2019-07-22 07:00:00 23.2 3 Este 17 Este 0 -- -- 45
2019-07-22 06:00:00 24.3 9 Este 24 Este 0 -- -- 45
2019-07-22 05:00:00 24.6 14 Este 23 Este 0 -- -- 45
2019-07-22 04:00:00 25.2 12 Este 29 Este 0 -- -- 45
2019-07-22 03:00:00 25.9 16 Sudeste 36 Sudeste 0 -- -- 45
2019-07-22 02:00:00 27.1 25 Sudeste 54 Sudeste 0 -- -- 44
2019-07-22 01:00:00 28.5 24 Sudeste 47 Sudeste 0 -- -- 43
2019-07-22 00:00:00 29.4 17 Sudeste 51 Sudeste 0 -- -- 43
2019-07-21 23:00:00 31.4 22 Sudeste 41 Sudeste 0 -- -- 41
2019-07-21 22:00:00 32.9 16 Sudeste 28 Sudeste 0 -- -- 39
2019-07-21 21:00:00 34.4 10 Sudeste 25 Sudeste 0 -- -- 35
2019-07-21 20:00:00 35.8 12 Sudeste 31 Sudeste 0 -- -- 33
2019-07-21 19:00:00 38.5 10 Sudeste 33 Sudeste 0 -- -- 32
2019-07-21 18:00:00 39.1 11 Sudeste 31 Sudeste 0 -- -- 32
2019-07-21 17:00:00 38 5 Sur 16 Sudeste 0 -- -- 32
2019-07-21 16:00:00 38.1 2 Oeste 22 Este 0 -- -- 33
2019-07-21 15:00:00 37.4 5 Sudeste 19 Este 0 -- -- 35
2019-07-21 14:00:00 36 6 Este 22 Sudeste 0 -- -- 37
2019-07-21 13:00:00 34.3 6 Sudeste 19 Este 0 -- -- 39
2019-07-21 12:00:00 32.2 6 Este 18 Sudeste 0 -- -- 41
2019-07-21 11:00:00 30.6 9 Sudeste 19 Sudeste 0 -- -- 44
2019-07-21 10:00:00 28 10 Sudeste 18 Sudeste 0 -- -- 47
2019-07-21 09:00:00 25.7 6 Sudeste -- -- -- -- -- 53
2019-07-21 08:00:00 23.1 0 Calma 8 Este 0 -- -- 53
2019-07-21 07:00:00 23.7 6 Este 11 Este 0 -- -- 51
2019-07-21 06:00:00 24.2 3 Este 16 Sudeste 0 -- -- 50
2019-07-21 05:00:00 25.2 11 Este 27 Sudeste 0 -- -- 47
2019-07-21 04:00:00 26.1 18 Sudeste 36 Sudeste 0 -- -- 44
2019-07-21 03:00:00 27.3 25 Sudeste 37 Este 0 -- -- 43
2019-07-21 02:00:00 28.2 21 Sudeste 35 Sudeste 0 -- -- 43
2019-07-21 01:00:00 30 19 Sudeste 35 Este 0 -- -- 41
2019-07-21 00:00:00 31.7 14 Sudeste 32 Sudeste 0 -- -- 40